Time;durP1;ratioP1;P1;durP2;ratioP2;P2;SDS_P1;SDS_P2;PMS_P1;PMS_P2;Temp;Humidity;BMP_temperature;BMP_pressure;BME280_temperature;BME280_humidity;BME280_pressure;Samples;Min_cycle;Max_cycle;Signal;HPM_P1;HPM_P2
2021/07/05 00:02:14;;;;;;;4.75;3.05;;;14.30;99.90;;;;;;4962188;28;20053;-92
2021/07/05 00:04:40;;;;;;;3.75;2.92;;;14.30;99.90;;;;;;4966297;28;20436;-92
2021/07/05 00:07:05;;;;;;;6.53;2.80;;;14.20;99.90;;;;;;4967303;28;20086;-91
2021/07/05 00:09:32;;;;;;;5.25;3.40;;;14.20;99.90;;;;;;4989961;28;20018;-91
2021/07/05 00:11:57;;;;;;;3.45;3.15;;;14.20;99.90;;;;;;4981613;28;20035;-91
2021/07/05 00:14:23;;;;;;;4.32;3.50;;;14.30;99.90;;;;;;4998386;28;20234;-91
2021/07/05 00:16:49;;;;;;;5.07;3.35;;;14.30;99.90;;;;;;4971797;28;20069;-91
2021/07/05 00:19:15;;;;;;;4.53;3.38;;;14.30;99.90;;;;;;4960413;28;20034;-92
2021/07/05 00:21:40;;;;;;;3.08;2.55;;;14.30;99.90;;;;;;4977147;28;20478;-91
2021/07/05 00:24:06;;;;;;;3.60;2.55;;;14.30;99.90;;;;;;4959687;28;20022;-92
2021/07/05 00:26:32;;;;;;;4.28;3.10;;;14.20;99.90;;;;;;4959319;28;20397;-92
2021/07/05 00:28:57;;;;;;;4.93;2.78;;;14.20;99.90;;;;;;4976537;28;20105;-92
2021/07/05 00:31:23;;;;;;;4.90;2.92;;;14.20;99.90;;;;;;4959587;28;20035;-92
2021/07/05 00:33:49;;;;;;;3.67;2.85;;;14.20;99.90;;;;;;4958822;28;20034;-93
2021/07/05 00:36:14;;;;;;;6.28;3.05;;;14.10;99.90;;;;;;4975738;28;20119;-92
2021/07/05 00:38:40;;;;;;;3.92;3.10;;;14.10;99.90;;;;;;4975452;28;20046;-92
2021/07/05 00:41:06;;;;;;;5.53;3.25;;;14.10;99.90;;;;;;4957885;28;20390;-93
2021/07/05 00:43:32;;;;;;;5.25;3.28;;;14.20;99.90;;;;;;4957770;28;20031;-92
2021/07/05 00:45:58;;;;;;;5.32;2.90;;;14.10;99.90;;;;;;4975117;28;20031;-92
2021/07/05 00:48:24;;;;;;;3.35;2.30;;;14.10;99.90;;;;;;4975032;28;20056;-92
2021/07/05 00:50:50;;;;;;;3.00;2.50;;;14.10;99.90;;;;;;4957690;28;20023;-92
2021/07/05 00:53:17;;;;;;;6.60;2.80;;;14.10;99.90;;;;;;4975604;28;20029;-94
2021/07/05 00:55:43;;;;;;;4.78;2.90;;;14.10;99.90;;;;;;4958507;28;20023;-93
2021/07/05 00:58:09;;;;;;;3.95;2.30;;;14.10;99.90;;;;;;4958133;28;20038;-92
2021/07/05 01:00:35;;;;;;;5.82;2.58;;;14.10;99.90;;;;;;4958408;28;20551;-94
2021/07/05 01:03:02;;;;;;;5.85;3.03;;;14.10;99.90;;;;;;4958323;28;20034;-92
2021/07/05 01:05:28;;;;;;;7.25;2.67;;;14.00;99.90;;;;;;4958438;28;20496;-92
2021/07/05 01:07:55;;;;;;;3.58;3.20;;;14.00;99.90;;;;;;4975807;28;20019;-92
2021/07/05 01:10:22;;;;;;;8.25;2.88;;;13.90;99.90;;;;;;4957739;28;20023;-91
2021/07/05 01:12:50;;;;;;;3.60;2.80;;;13.90;99.90;;;;;;4975267;28;20026;-91
2021/07/05 01:15:19;;;;;;;3.53;2.33;;;13.90;99.90;;;;;;4957943;28;20081;-91
2021/07/05 01:17:46;;;;;;;4.10;2.67;;;13.90;99.90;;;;;;4957624;28;20053;-90
2021/07/05 01:20:14;;;;;;;5.30;3.08;;;13.90;99.90;;;;;;4974946;28;20026;-91
2021/07/05 01:22:40;;;;;;;3.92;2.95;;;13.80;99.90;;;;;;4958029;28;20031;-90
2021/07/05 01:25:11;;;;;;;7.00;3.28;;;13.90;99.90;;;;;;4980527;28;20042;-91
2021/07/05 01:27:36;;;;;;;;;;;13.80;99.90;;;;;;4963644;28;20058;-90
2021/07/05 01:30:04;;;;;;;4.32;3.05;;;13.80;99.90;;;;;;4957673;28;19906;-90
2021/07/05 01:32:30;;;;;;;4.60;2.97;;;13.80;99.90;;;;;;4957573;28;20035;-91
2021/07/05 01:34:56;;;;;;;5.60;2.80;;;13.80;99.90;;;;;;4957546;28;20046;-91
2021/07/05 01:37:22;;;;;;;6.93;2.80;;;13.80;99.90;;;;;;4957618;28;20543;-92
2021/07/05 01:39:48;;;;;;;4.93;3.40;;;13.80;99.90;;;;;;4957997;28;20140;-91
2021/07/05 01:42:14;;;;;;;10.00;3.00;;;13.90;99.90;;;;;;4957976;28;20174;-91
2021/07/05 01:44:40;;;;;;;6.65;3.20;;;13.90;99.90;;;;;;4957810;28;20065;-91
2021/07/05 01:47:06;;;;;;;6.95;3.70;;;13.90;99.90;;;;;;4975663;28;20034;-92
2021/07/05 01:49:31;;;;;;;9.05;3.45;;;13.90;99.90;;;;;;4975021;28;20031;-92
2021/07/05 01:51:57;;;;;;;13.07;3.80;;;13.90;99.90;;;;;;4957623;28;20042;-91
2021/07/05 01:54:23;;;;;;;6.68;3.17;;;13.90;99.90;;;;;;4975161;28;20050;-91
2021/07/05 01:56:49;;;;;;;7.55;3.75;;;14.00;99.90;;;;;;4961715;28;20038;-91
2021/07/05 01:59:14;;;;;;;5.72;3.17;;;14.00;99.90;;;;;;4961318;28;20442;-91
2021/07/05 02:01:40;;;;;;;9.68;3.60;;;14.00;99.90;;;;;;4961560;28;20031;-91
2021/07/05 02:04:07;;;;;;;5.68;3.30;;;14.00;99.90;;;;;;4963921;28;20026;-90
2021/07/05 02:06:35;;;;;;;8.95;3.88;;;14.00;99.90;;;;;;4980953;28;20369;-91
2021/07/05 02:09:04;;;;;;;8.88;3.58;;;14.00;99.90;;;;;;4998042;28;20052;-91
2021/07/05 02:11:31;;;;;;;7.35;3.70;;;14.10;99.90;;;;;;4980824;28;20546;-90
2021/07/05 02:13:57;;;;;;;7.22;3.60;;;14.10;99.90;;;;;;4998244;28;20030;-91
2021/07/05 02:16:23;;;;;;;6.72;3.97;;;14.10;99.90;;;;;;4980307;28;20400;-92
2021/07/05 02:18:48;;;;;;;7.28;3.47;;;14.10;99.90;;;;;;4980145;28;20065;-91
2021/07/05 02:21:14;;;;;;;6.70;3.92;;;14.10;99.90;;;;;;4997569;28;20038;-92
2021/07/05 02:23:40;;;;;;;10.60;4.60;;;14.10;99.90;;;;;;4980606;28;20050;-92
2021/07/05 02:26:06;;;;;;;7.90;3.97;;;14.10;99.90;;;;;;4980638;28;20033;-91
2021/07/05 02:28:34;;;;;;;7.72;4.13;;;14.10;99.90;;;;;;4980411;28;20042;-91
2021/07/05 02:31:01;;;;;;;7.35;3.80;;;14.10;99.90;;;;;;4997238;28;20559;-92
2021/07/05 02:33:31;;;;;;;6.00;3.15;;;14.00;99.90;;;;;;4979932;28;20030;-91
2021/07/05 02:36:01;;;;;;;7.55;4.15;;;14.00;99.90;;;;;;4997529;28;20049;-90
2021/07/05 02:38:27;;;;;;;7.85;4.65;;;14.00;99.90;;;;;;4979931;28;20042;-91
2021/07/05 02:40:56;;;;;;;17.23;4.90;;;14.00;99.90;;;;;;4996923;28;20067;-90
2021/07/05 02:43:23;;;;;;;7.13;4.90;;;14.00;99.90;;;;;;4979680;28;20029;-90
2021/07/05 02:45:51;;;;;;;9.95;5.20;;;14.10;99.90;;;;;;4980015;28;20053;-91
2021/07/05 02:48:19;;;;;;;9.05;4.97;;;14.00;99.90;;;;;;4979467;28;20455;-90
2021/07/05 02:50:49;;;;;;;12.02;5.10;;;14.00;99.90;;;;;;4997052;28;20053;-91
2021/07/05 02:53:15;;;;;;;9.93;4.88;;;14.00;99.90;;;;;;4979954;28;20480;-91
2021/07/05 02:55:42;;;;;;;10.93;4.65;;;14.00;99.90;;;;;;4979525;28;20031;-90
2021/07/05 02:58:08;;;;;;;8.88;4.35;;;14.00;99.90;;;;;;4979760;28;20088;-90
2021/07/05 03:00:37;;;;;;;8.75;4.65;;;14.00;99.90;;;;;;4980495;28;20026;-90
2021/07/05 03:03:03;;;;;;;10.55;5.20;;;14.00;99.90;;;;;;4980161;28;20038;-90
2021/07/05 03:05:30;;;;;;;10.60;4.47;;;14.00;99.90;;;;;;4997487;28;20384;-91
2021/07/05 03:07:57;;;;;;;9.93;4.90;;;14.00;99.90;;;;;;5004309;28;20021;-91
2021/07/05 03:10:28;;;;;;;7.40;5.10;;;14.00;99.90;;;;;;5020456;28;20031;-91
2021/07/05 03:12:54;;;;;;;14.45;5.20;;;14.00;99.90;;;;;;5020498;28;20101;-91
2021/07/05 03:15:21;;;;;;;7.90;5.80;;;14.00;99.90;;;;;;4992916;28;20050;-92
2021/07/05 03:17:47;;;;;;;9.02;5.00;;;13.90;99.90;;;;;;4989834;28;20129;-91
2021/07/05 03:20:17;;;;;;;8.25;4.38;;;13.90;99.90;;;;;;5007709;28;20065;-91
2021/07/05 03:22:44;;;;;;;7.53;4.25;;;13.90;99.90;;;;;;4985325;28;20033;-91
2021/07/05 03:25:11;;;;;;;5.90;4.68;;;13.90;99.90;;;;;;4986270;28;20113;-91
2021/07/05 03:27:38;;;;;;;8.13;4.38;;;13.90;99.90;;;;;;5000539;28;20030;-91
2021/07/05 03:30:05;;;;;;;8.68;4.00;;;13.90;99.90;;;;;;4980093;28;20400;-91
2021/07/05 03:32:31;;;;;;;7.25;3.85;;;13.80;99.90;;;;;;4979744;28;20452;-91
2021/07/05 03:34:57;;;;;;;11.07;4.88;;;13.80;99.90;;;;;;4996851;28;20053;-91
2021/07/05 03:37:22;;;;;;;6.95;4.43;;;13.80;99.90;;;;;;4996789;28;20086;-91
2021/07/05 03:39:48;;;;;;;9.88;4.45;;;13.80;99.90;;;;;;4979416;28;20490;-91
2021/07/05 03:42:14;;;;;;;7.93;3.90;;;13.80;99.90;;;;;;4979174;28;20034;-90
2021/07/05 03:44:39;;;;;;;7.13;4.25;;;13.80;99.90;;;;;;4979521;28;20026;-90
2021/07/05 03:47:05;;;;;;;7.53;4.20;;;13.80;99.90;;;;;;4978778;28;20019;-89
2021/07/05 03:49:31;;;;;;;7.28;4.05;;;13.80;99.90;;;;;;4995955;28;20132;-89
2021/07/05 03:51:56;;;;;;;6.63;3.33;;;13.80;99.90;;;;;;4978551;28;20022;-89
2021/07/05 03:54:22;;;;;;;5.72;4.07;;;13.80;99.90;;;;;;4978405;28;20117;-90
2021/07/05 03:56:48;;;;;;;6.53;4.32;;;13.80;99.90;;;;;;4992921;28;20038;-91
2021/07/05 03:59:14;;;;;;;4.70;4.00;;;13.70;99.90;;;;;;4967557;28;20018;-91
2021/07/05 04:01:40;;;;;;;7.43;4.50;;;13.70;99.90;;;;;;4967383;28;20035;-91
2021/07/05 04:04:06;;;;;;;6.00;4.22;;;13.70;99.90;;;;;;4967486;28;20026;-91
2021/07/05 04:06:32;;;;;;;9.88;4.50;;;13.70;99.90;;;;;;4984397;28;20494;-90
2021/07/05 04:08:59;;;;;;;5.90;4.10;;;13.70;99.90;;;;;;4969005;28;20031;-91
2021/07/05 04:11:24;;;;;;;7.68;4.05;;;13.70;99.90;;;;;;4975004;28;20023;-90
2021/07/05 04:13:50;;;;;;;7.75;4.00;;;13.70;99.90;;;;;;4986507;28;20499;-90
2021/07/05 04:16:16;;;;;;;6.47;3.60;;;13.70;99.90;;;;;;4968312;28;20059;-91
2021/07/05 04:18:41;;;;;;;5.88;3.13;;;13.70;99.90;;;;;;4983111;28;20033;-90
2021/07/05 04:21:08;;;;;;;4.20;3.25;;;13.70;99.90;;;;;;4984925;28;20027;-92
2021/07/05 04:23:34;;;;;;;4.93;3.33;;;13.70;99.90;;;;;;4970411;28;20106;-91
2021/07/05 04:26:01;;;;;;;7.22;3.38;;;13.70;99.90;;;;;;4985520;28;20050;-91
2021/07/05 04:28:27;;;;;;;5.65;3.40;;;13.70;99.90;;;;;;4967151;28;20097;-90
2021/07/05 04:30:53;;;;;;;5.28;3.42;;;13.70;99.90;;;;;;4974285;28;20019;-91
2021/07/05 04:33:18;;;;;;;5.53;3.63;;;13.70;99.90;;;;;;4985790;28;20022;-91
2021/07/05 04:35:44;;;;;;;5.32;3.05;;;13.70;99.90;;;;;;4969338;28;20118;-91
2021/07/05 04:38:10;;;;;;;7.22;3.80;;;13.70;99.90;;;;;;4964660;28;20037;-91
2021/07/05 04:40:38;;;;;;;6.80;3.90;;;13.70;99.90;;;;;;4982805;28;20073;-91
2021/07/05 04:43:04;;;;;;;6.65;3.70;;;13.70;99.90;;;;;;4963696;28;20543;-90
2021/07/05 04:45:31;;;;;;;6.63;3.55;;;13.70;99.90;;;;;;4966299;28;20081;-92
2021/07/05 04:47:59;;;;;;;9.70;4.00;;;13.70;99.90;;;;;;4976298;28;20027;-92
2021/07/05 04:50:25;;;;;;;6.78;3.00;;;13.70;99.90;;;;;;4963401;28;20023;-93
2021/07/05 04:52:51;;;;;;;7.05;3.72;;;13.70;99.90;;;;;;4982410;28;20498;-93
2021/07/05 04:55:18;;;;;;;7.05;3.42;;;13.80;99.90;;;;;;4966641;28;20026;-91
2021/07/05 04:57:45;;;;;;;9.52;3.33;;;13.80;99.90;;;;;;4983908;28;20038;-92
2021/07/05 05:00:24;;;;;;;6.20;4.00;;;13.80;99.90;;;;;;4970242;28;20015;-92
2021/07/05 05:02:50;;;;;;;6.97;3.45;;;13.70;99.90;;;;;;4966607;28;20085;-93
2021/07/05 05:05:16;;;;;;;6.32;3.60;;;13.70;99.90;;;;;;4967630;28;20404;-93
2021/07/05 05:07:41;;;;;;;8.85;3.85;;;13.70;99.90;;;;;;4983431;28;20033;-92
2021/07/05 05:10:10;;;;;;;6.38;3.97;;;13.70;99.90;;;;;;4968680;28;20037;-92
2021/07/05 05:12:37;;;;;;;7.68;3.85;;;13.80;99.90;;;;;;4966475;28;20029;-93
2021/07/05 05:15:05;;;;;;;7.00;4.22;;;13.80;99.90;;;;;;4965870;28;20035;-92
2021/07/05 05:17:31;;;;;;;7.10;4.10;;;13.70;99.90;;;;;;4985250;28;20034;-92
2021/07/05 05:19:57;;;;;;;7.00;3.83;;;13.80;99.90;;;;;;4983613;28;20018;-91
2021/07/05 05:22:23;;;;;;;7.78;3.83;;;13.80;99.90;;;;;;4968471;28;20027;-93
2021/07/05 05:24:49;;;;;;;6.22;4.15;;;13.80;99.90;;;;;;4973384;28;20082;-90
2021/07/05 05:27:15;;;;;;;8.75;3.97;;;13.80;99.90;;;;;;4983839;28;20427;-94
2021/07/05 05:29:41;;;;;;;6.95;4.78;;;13.80;99.90;;;;;;4985078;28;20026;-93
2021/07/05 05:32:07;;;;;;;7.35;4.18;;;13.80;99.90;;;;;;4966078;28;20027;-94
2021/07/05 05:34:33;;;;;;;8.35;3.90;;;13.90;99.90;;;;;;4967289;28;20019;-92
2021/07/05 05:36:58;;;;;;;10.70;4.03;;;13.90;99.90;;;;;;4965672;28;20050;-93
2021/07/05 05:39:24;;;;;;;6.18;3.63;;;14.00;99.90;;;;;;4966356;28;20425;-93
2021/07/05 05:41:50;;;;;;;6.18;3.90;;;14.10;99.90;;;;;;4971942;28;20476;-92
2021/07/05 05:44:15;;;;;;;7.90;3.47;;;14.10;99.90;;;;;;4974397;28;20027;-93
2021/07/05 05:46:41;;;;;;;5.95;3.50;;;14.10;99.90;;;;;;4967205;28;20034;-93
2021/07/05 05:49:07;;;;;;;4.07;3.20;;;14.10;99.90;;;;;;4973986;28;20018;-93
2021/07/05 05:51:35;;;;;;;9.57;4.15;;;14.10;99.90;;;;;;4966129;28;20117;-93
2021/07/05 05:54:03;;;;;;;7.22;2.90;;;14.20;99.90;;;;;;4974679;28;20023;-93
2021/07/05 05:56:31;;;;;;;8.32;3.78;;;14.20;99.90;;;;;;4992936;28;20045;-93
2021/07/05 05:59:01;;;;;;;10.40;3.13;;;14.20;99.90;;;;;;4988295;28;20496;-92
2021/07/05 06:01:28;;;;;;;5.82;3.05;;;14.20;99.90;;;;;;4967901;28;20028;-93
2021/07/05 06:03:54;;;;;;;7.72;3.55;;;14.30;99.90;;;;;;4993359;28;20019;-92
2021/07/05 06:06:20;;;;;;;6.05;3.70;;;14.30;99.90;;;;;;4988930;28;20078;-92
2021/07/05 06:08:46;;;;;;;10.90;3.40;;;14.30;99.90;;;;;;5006975;28;20011;-92
2021/07/05 06:11:11;;;;;;;6.38;3.08;;;14.30;99.90;;;;;;4967741;28;20023;-93
2021/07/05 06:13:37;;;;;;;11.73;3.72;;;14.30;99.90;;;;;;4973908;28;20095;-92
2021/07/05 06:16:03;;;;;;;8.27;3.22;;;14.20;99.90;;;;;;4967972;28;20097;-92
2021/07/05 06:18:29;;;;;;;6.88;3.35;;;14.20;99.90;;;;;;4972453;28;20223;-94
2021/07/05 06:20:55;;;;;;;6.65;3.40;;;14.20;99.90;;;;;;4966796;28;20026;-92
2021/07/05 06:23:24;;;;;;;10.13;3.17;;;14.20;99.90;;;;;;4966418;28;20027;-92
2021/07/05 06:25:50;;;;;;;10.55;3.50;;;14.10;99.90;;;;;;4965500;28;20055;-92
2021/07/05 06:28:17;;;;;;;7.72;3.10;;;14.10;99.90;;;;;;4965840;28;20112;-91
2021/07/05 06:30:43;;;;;;;9.55;3.55;;;14.10;99.90;;;;;;4965019;28;20125;-95
2021/07/05 06:33:09;;;;;;;6.05;3.20;;;14.10;99.90;;;;;;4966552;28;20023;-94
2021/07/05 06:35:35;;;;;;;8.60;3.50;;;14.10;99.90;;;;;;4987439;28;20031;-95
2021/07/05 06:38:01;;;;;;;11.43;2.78;;;14.10;99.90;;;;;;4968335;28;20038;-93
2021/07/05 06:40:27;;;;;;;5.90;3.13;;;14.00;99.90;;;;;;4966524;28;20428;-93
2021/07/05 06:42:53;;;;;;;8.52;3.30;;;14.00;99.90;;;;;;4971315;28;20046;-92
2021/07/05 06:45:19;;;;;;;12.48;3.30;;;14.00;99.90;;;;;;4972697;28;21518;-96
2021/07/05 06:47:45;;;;;;;6.82;3.17;;;14.00;99.90;;;;;;4970099;28;20026;-93
2021/07/05 06:50:11;;;;;;;6.00;2.97;;;14.00;99.90;;;;;;4973095;28;20033;-93
2021/07/05 06:52:36;;;;;;;7.40;3.25;;;14.00;99.90;;;;;;4970344;28;20022;-94
2021/07/05 06:55:04;;;;;;;11.43;3.88;;;14.10;99.90;;;;;;4969634;28;20022;-93
2021/07/05 06:57:29;;;;;;;8.70;3.33;;;14.10;99.90;;;;;;4996839;28;20033;-93
2021/07/05 07:00:00;;;;;;;6.97;3.78;;;14.20;99.90;;;;;;4997359;28;20027;-92
2021/07/05 07:02:26;;;;;;;10.30;3.38;;;14.20;99.90;;;;;;4987092;28;20365;-93
2021/07/05 07:04:52;;;;;;;6.57;3.10;;;14.30;99.90;;;;;;4968829;28;20125;-94
2021/07/05 07:07:18;;;;;;;8.80;3.25;;;14.30;99.90;;;;;;4976723;28;20054;-90
2021/07/05 07:09:44;;;;;;;15.25;3.75;;;14.40;99.90;;;;;;4971305;28;20040;-92
2021/07/05 07:12:09;;;;;;;9.90;3.13;;;14.40;99.90;;;;;;4968161;28;20085;-91
2021/07/05 07:14:35;;;;;;;6.32;2.80;;;14.50;99.90;;;;;;4971106;28;20022;-91
2021/07/05 07:17:13;;;;;;;6.03;2.47;;;14.50;99.90;;;;;;4966232;28;20481;-91
2021/07/05 07:19:38;;;;;;;6.28;2.90;;;14.50;99.90;;;;;;4985277;28;20450;-91
2021/07/05 07:22:04;;;;;;;6.03;3.25;;;14.50;99.90;;;;;;4977602;28;20073;-91
2021/07/05 07:24:32;;;;;;;7.57;2.72;;;14.40;99.90;;;;;;4987864;28;20141;-93
2021/07/05 07:26:59;;;;;;;7.47;2.80;;;14.40;99.90;;;;;;4999746;28;20038;-91
2021/07/05 07:29:25;;;;;;;10.00;3.15;;;14.40;99.90;;;;;;4970618;28;20117;-90
2021/07/05 07:31:51;;;;;;;6.10;2.83;;;14.30;99.90;;;;;;4969184;28;20034;-90
2021/07/05 07:34:17;;;;;;;6.90;3.17;;;14.30;99.90;;;;;;4990104;28;20026;-90
2021/07/05 07:36:43;;;;;;;8.05;3.38;;;14.40;99.90;;;;;;4972256;28;20043;-89
2021/07/05 07:39:12;;;;;;;6.75;3.00;;;14.40;99.90;;;;;;4991943;28;20041;-90
2021/07/05 07:41:38;;;;;;;3.55;2.95;;;14.40;99.90;;;;;;4970379;28;20463;-89
2021/07/05 07:44:04;;;;;;;6.97;3.40;;;14.40;99.90;;;;;;4966883;28;20086;-89
2021/07/05 07:46:30;;;;;;;10.27;3.30;;;14.50;99.90;;;;;;4981253;28;20042;-89
2021/07/05 07:48:56;;;;;;;8.30;3.60;;;14.50;99.90;;;;;;4977154;28;20034;-91
2021/07/05 07:51:22;;;;;;;6.70;3.05;;;14.50;99.90;;;;;;4959393;28;20115;-91
2021/07/05 07:53:48;;;;;;;7.43;3.15;;;14.60;99.90;;;;;;4976656;28;20038;-92
2021/07/05 07:56:14;;;;;;;6.95;2.92;;;14.60;99.90;;;;;;4951806;28;20038;-93
2021/07/05 07:58:39;;;;;;;9.90;3.00;;;14.70;99.90;;;;;;4969022;28;20041;-92
2021/07/05 08:01:07;;;;;;;5.05;2.97;;;14.80;99.90;;;;;;4973409;28;20365;-93
2021/07/05 08:03:33;;;;;;;7.40;3.35;;;14.70;99.90;;;;;;4959742;28;20027;-92
2021/07/05 08:05:59;;;;;;;6.93;2.90;;;14.80;99.90;;;;;;4958709;28;20549;-92
2021/07/05 08:08:25;;;;;;;8.30;2.90;;;14.80;99.90;;;;;;4958817;28;20122;-91
2021/07/05 08:10:51;;;;;;;6.15;3.03;;;14.80;99.90;;;;;;4958698;28;20073;-94
2021/07/05 08:13:16;;;;;;;8.90;3.33;;;14.80;99.90;;;;;;4958694;28;20121;-93
2021/07/05 08:15:42;;;;;;;6.53;3.45;;;14.90;99.90;;;;;;4962515;28;20142;-91
2021/07/05 08:18:08;;;;;;;8.10;3.15;;;15.00;99.90;;;;;;4980937;28;20443;-91
2021/07/05 08:20:33;;;;;;;6.38;3.05;;;15.10;99.90;;;;;;4977934;28;20022;-92
2021/07/05 08:22:59;;;;;;;5.72;2.60;;;15.10;99.90;;;;;;4995759;28;20038;-92
2021/07/05 08:25:26;;;;;;;6.80;2.95;;;15.10;99.90;;;;;;4985429;28;20026;-92
2021/07/05 08:27:54;;;;;;;5.47;2.70;;;15.10;99.90;;;;;;4969275;28;20492;-92
2021/07/05 08:30:21;;;;;;;4.57;2.53;;;15.30;99.90;;;;;;4975812;28;20088;-93
2021/07/05 08:32:52;;;;;;;3.55;2.33;;;15.30;99.90;;;;;;4982034;28;20033;-92
2021/07/05 08:35:19;;;;;;;4.22;2.80;;;15.40;99.90;;;;;;4991227;28;20022;-95
2021/07/05 08:37:45;;;;;;;6.30;2.58;;;15.60;99.90;;;;;;4977622;28;20053;-93
2021/07/05 08:40:11;;;;;;;6.40;2.58;;;15.70;99.90;;;;;;4976359;28;20026;-94
2021/07/05 08:42:37;;;;;;;3.63;2.13;;;15.80;99.90;;;;;;4977068;28;20027;-96
2021/07/05 08:45:07;;;;;;;9.68;2.50;;;15.90;99.90;;;;;;4977248;28;20506;-95
2021/07/05 08:47:39;;;;;;;5.13;2.20;;;16.00;99.90;;;;;;4978322;28;20041;-93
2021/07/05 08:50:06;;;;;;;4.65;1.90;;;16.10;99.90;;;;;;4958212;28;20034;-92
2021/07/05 08:52:41;;;;;;;3.75;2.00;;;16.30;99.90;;;;;;4959078;28;20045;-93
2021/07/05 08:55:08;;;;;;;3.58;1.65;;;16.40;99.90;;;;;;4975116;28;20034;-93
2021/07/05 08:57:38;;;;;;;2.28;1.77;;;16.60;99.90;;;;;;4976474;28;20042;-94
2021/07/05 09:00:19;;;;;;;2.28;1.50;;;16.70;99.90;;;;;;4974336;28;20031;-95
2021/07/05 09:02:44;;;;;;;;;;;16.80;99.90;;;;;;4958881;28;20031;-94
2021/07/05 09:05:10;;;;;;;4.38;2.10;;;16.90;99.90;;;;;;4975481;28;19913;-95
2021/07/05 09:08:04;;;;;;;5.63;1.80;;;17.00;99.90;;;;;;4974812;28;20106;-94
2021/07/05 09:10:43;;;;;;;5.13;1.60;;;17.10;99.90;;;;;;4959405;28;20038;-96
2021/07/05 09:13:10;;;;;;;4.13;2.17;;;17.30;99.90;;;;;;4960885;28;20019;-94
2021/07/05 09:15:43;;;;;;;2.90;1.88;;;17.40;99.90;;;;;;4959027;28;20054;-94
2021/07/05 09:18:34;;;;;;;2.95;1.90;;;17.60;99.90;;;;;;4961818;28;20038;-94
2021/07/05 09:21:26;;;;;;;2.40;1.67;;;18.00;99.90;;;;;;4978063;28;20101;-93
2021/07/05 09:24:01;;;;;;;2.55;1.58;;;18.10;99.90;;;;;;4977527;28;20030;-93
2021/07/05 09:26:33;;;;;;;2.38;1.52;;;18.10;99.90;;;;;;4975861;28;20574;-94
2021/07/05 09:29:02;;;;;;;7.03;2.13;;;18.10;99.90;;;;;;4978547;28;20125;-95
2021/07/05 09:31:32;;;;;;;4.50;1.52;;;18.00;99.90;;;;;;4964626;28;20027;-94
2021/07/05 09:33:58;;;;;;;2.45;1.40;;;18.00;99.90;;;;;;4975447;28;20468;-95
2021/07/05 09:36:25;;;;;;;3.40;1.95;;;18.00;99.90;;;;;;4977239;28;20027;-95
2021/07/05 09:38:51;;;;;;;3.05;1.23;;;18.10;99.90;;;;;;4976698;28;20035;-96
2021/07/05 09:41:29;;;;;;;1.90;1.38;;;18.00;99.90;;;;;;4959593;28;20023;-96
2021/07/05 09:43:58;;;;;;;5.32;2.20;;;18.00;99.90;;;;;;4980497;28;20449;-96
2021/07/05 09:46:57;;;;;;;5.70;1.50;;;17.80;99.90;;;;;;4977651;28;20086;-96
2021/07/05 09:49:27;;;;;;;3.47;1.27;;;17.70;99.90;;;;;;4960202;28;20031;-94
2021/07/05 09:52:08;;;;;;;2.17;1.25;;;17.50;99.90;;;;;;4976795;28;20026;-93
2021/07/05 09:54:35;;;;;;;3.75;1.42;;;17.40;99.90;;;;;;4972003;28;20089;-94
2021/07/05 09:57:01;;;;;;;3.25;1.60;;;17.40;99.90;;;;;;4978282;28;20098;-94
2021/07/05 09:59:29;;;;;;;2.92;1.20;;;17.40;99.90;;;;;;4985758;28;20048;-94
2021/07/05 10:01:57;;;;;;;2.25;1.10;;;17.40;99.90;;;;;;4981892;28;20030;-95
2021/07/05 10:04:31;;;;;;;1.35;0.98;;;17.40;99.90;;;;;;4978793;28;20041;-94
2021/07/05 10:06:59;;;;;;;4.90;1.50;;;17.30;99.90;;;;;;4978286;28;20023;-94
2021/07/05 10:09:48;;;;;;;3.25;1.58;;;17.40;99.90;;;;;;4982015;28;20033;-94
2021/07/05 10:12:27;;;;;;;1.55;1.30;;;17.50;99.90;;;;;;4980756;28;20073;-95
2021/07/05 10:14:54;;;;;;;2.63;1.30;;;17.60;99.90;;;;;;4971316;28;20052;-94
2021/07/05 10:17:21;;;;;;;1.77;1.10;;;17.80;99.90;;;;;;4961908;28;20068;-93
2021/07/05 10:19:46;;;;;;;2.10;1.50;;;17.90;99.90;;;;;;4973473;28;20053;-95
2021/07/05 10:22:13;;;;;;;4.28;1.45;;;17.90;99.90;;;;;;4981352;28;20034;-95
2021/07/05 10:24:41;;;;;;;3.85;1.45;;;18.00;99.90;;;;;;4966518;28;20034;-94
2021/07/05 10:27:09;;;;;;;3.05;1.15;;;18.00;99.90;;;;;;4967221;28;20034;-94
2021/07/05 10:29:38;;;;;;;3.55;1.08;;;18.10;99.90;;;;;;4969841;28;20031;-95
2021/07/05 10:32:07;;;;;;;2.90;1.00;;;18.00;99.70;;;;;;4983240;28;20034;-96
2021/07/05 10:34:34;;;;;;;1.50;1.10;;;18.00;99.40;;;;;;4969895;28;20019;-95
2021/07/05 10:37:04;;;;;;;3.22;0.98;;;17.90;99.30;;;;;;4976658;28;20041;-93
2021/07/05 10:39:31;;;;;;;2.63;1.03;;;17.80;99.50;;;;;;4980671;28;20084;-95
2021/07/05 10:41:58;;;;;;;1.83;1.00;;;17.80;99.70;;;;;;4970570;28;20608;-96
2021/07/05 10:44:41;;;;;;;3.28;0.98;;;17.70;99.90;;;;;;4984073;28;20653;-96
2021/07/05 10:47:07;;;;;;;2.10;1.02;;;17.40;99.90;;;;;;4986012;28;20030;-95
2021/07/05 10:49:34;;;;;;;2.80;1.27;;;17.30;99.90;;;;;;4989497;28;20034;-96
2021/07/05 10:52:08;;;;;;;1.55;1.10;;;17.20;99.90;;;;;;5005679;28;20034;-95
2021/07/05 10:57:10;;;;;;;1.00;0.95;;;16.90;99.90;;;;;;5011866;28;20400;-94
2021/07/05 10:59:40;;;;;;;1.23;1.00;;;16.80;99.90;;;;;;4994010;28;20137;-94
2021/07/05 11:02:44;;;;;;;1.95;1.00;;;16.60;99.90;;;;;;4996072;28;20030;-96
2021/07/05 11:05:37;;;;;;;2.92;1.88;;;16.50;99.90;;;;;;4990716;28;20031;-96
2021/07/05 11:08:31;;;;;;;1.55;1.33;;;16.50;99.90;;;;;;5001057;28;20086;-96
2021/07/05 11:11:19;;;;;;;2.88;0.98;;;16.50;99.90;;;;;;4999403;28;20034;-94
2021/07/05 11:13:46;;;;;;;1.30;0.85;;;16.60;99.90;;;;;;4987399;28;20058;-95
2021/07/05 11:16:13;;;;;;;2.45;1.20;;;16.70;99.90;;;;;;4999585;28;20018;-96
2021/07/05 11:18:39;;;;;;;1.52;1.10;;;16.60;99.90;;;;;;4994386;28;20094;-96
2021/07/05 11:21:06;;;;;;;0.90;0.90;;;16.70;99.90;;;;;;4989001;28;20026;-96
2021/07/05 11:23:56;;;;;;;2.45;0.90;;;16.80;99.90;;;;;;4987332;28;20532;-96
2021/07/05 11:26:50;;;;;;;;;;;16.90;99.90;;;;;;4990415;28;20022;-96
2021/07/05 11:29:16;;;;;;;1.20;0.80;;;16.80;99.90;;;;;;4992795;28;19906;-96
2021/07/05 11:32:00;;;;;;;1.15;1.00;;;16.70;99.90;;;;;;4993958;28;20026;-95
2021/07/05 11:34:35;;;;;;;1.67;1.00;;;16.70;99.90;;;;;;4987918;28;20033;-96
2021/07/05 11:37:13;;;;;;;1.33;1.00;;;16.60;99.90;;;;;;4982343;28;20137;-96
2021/07/05 11:39:43;;;;;;;1.25;1.10;;;16.60;99.90;;;;;;4990603;28;20022;-96
2021/07/05 11:42:11;;;;;;;1.02;0.93;;;16.60;99.90;;;;;;5003198;28;20022;-96
2021/07/05 11:44:49;;;;;;;2.97;0.80;;;16.60;99.90;;;;;;5005931;28;20052;-95
2021/07/05 11:47:41;;;;;;;2.45;1.23;;;16.50;99.90;;;;;;5011154;28;20010;-95
2021/07/05 11:50:25;;;;;;;1.48;1.38;;;16.50;99.90;;;;;;5006451;28;20025;-95
2021/07/05 11:53:03;;;;;;;3.72;1.10;;;16.60;99.90;;;;;;5016769;28;20048;-95
2021/07/05 11:55:31;;;;;;;1.35;1.17;;;16.60;99.90;;;;;;5017047;28;20025;-96
2021/07/05 11:58:05;;;;;;;2.78;1.40;;;16.70;99.90;;;;;;5016933;28;20077;-95
2021/07/05 12:00:33;;;;;;;1.52;1.35;;;16.80;99.90;;;;;;5011981;28;20084;-95
2021/07/05 12:03:11;;;;;;;3.90;1.48;;;16.90;99.90;;;;;;5011076;28;20026;-94
2021/07/05 12:05:40;;;;;;;3.10;1.50;;;16.90;99.90;;;;;;5010794;28;20041;-96
2021/07/05 12:08:26;;;;;;;3.13;1.40;;;16.90;99.90;;;;;;5009803;28;20034;-96
2021/07/05 12:10:57;;;;;;;2.17;1.63;;;16.80;99.90;;;;;;5009971;28;20034;-96
2021/07/05 12:13:27;;;;;;;1.80;1.50;;;16.80;99.90;;;;;;5006388;28;20029;-96
2021/07/05 12:16:00;;;;;;;1.85;1.52;;;16.80;99.90;;;;;;5003390;28;20022;-96
2021/07/05 12:18:26;;;;;;;5.85;1.98;;;16.80;99.90;;;;;;5007137;28;20060;-96
2021/07/05 12:23:47;;;;;;;2.60;2.05;;;16.80;99.90;;;;;;5531738;23;20057;-92
2021/07/05 12:26:14;;;;;;;3.63;1.83;;;16.90;99.90;;;;;;4991565;28;20026;-93
2021/07/05 12:29:04;;;;;;;4.05;2.20;;;16.90;99.90;;;;;;4988223;28;20066;-94
2021/07/05 12:31:32;;;;;;;3.33;2.35;;;17.00;99.90;;;;;;4993315;28;20026;-96
2021/07/05 12:33:59;;;;;;;5.25;2.00;;;17.10;99.90;;;;;;4976664;28;20081;-94
2021/07/05 12:36:26;;;;;;;3.75;1.95;;;17.20;99.90;;;;;;4987945;28;20026;-96
2021/07/05 12:39:05;;;;;;;2.92;2.63;;;17.30;99.90;;;;;;4984962;28;20035;-96
2021/07/05 12:41:32;;;;;;;2.95;2.08;;;17.50;99.90;;;;;;4985738;28;20023;-96
2021/07/05 12:44:18;;;;;;;5.15;3.00;;;17.70;99.90;;;;;;4987594;28;20030;-95
2021/07/05 12:46:44;;;;;;;3.45;2.65;;;17.70;99.90;;;;;;4982184;28;20034;-95
2021/07/05 12:49:10;;;;;;;4.30;2.67;;;17.80;99.90;;;;;;4982030;28;20063;-93
2021/07/05 12:51:37;;;;;;;6.45;2.55;;;17.90;99.90;;;;;;4980629;28;20022;-96
2021/07/05 12:54:21;;;;;;;6.32;2.75;;;18.00;99.90;;;;;;4980164;28;20030;-96
2021/07/05 12:56:47;;;;;;;4.47;3.00;;;18.00;99.90;;;;;;5002222;28;20037;-96
2021/07/05 12:59:19;;;;;;;4.03;2.72;;;17.90;99.90;;;;;;5000350;28;20121;-96
2021/07/05 13:01:45;;;;;;;4.28;2.92;;;17.90;99.90;;;;;;4994114;28;20038;-96